createdAt,value
2018-11-22T12:17:46.567Z,3.87
2018-11-22T12:20:14.656Z,3.27
2018-11-22T12:22:43.458Z,3.33
2018-11-22T12:25:14.591Z,3.33
2018-11-22T12:27:42.756Z,3.20
2018-11-22T12:30:12.086Z,3.43
2018-11-22T12:32:45.125Z,2.80
2018-11-22T12:35:17.061Z,3.60
2018-11-22T12:37:49.481Z,3.30
2018-11-22T12:40:16.755Z,3.50
2018-11-22T12:42:43.984Z,3.53
2018-11-22T12:45:11.268Z,3.53
2018-11-22T12:47:38.548Z,3.23
2018-11-22T12:50:07.755Z,3.40
2018-11-22T12:52:35.025Z,3.30
2018-11-22T12:55:02.401Z,4.03
2018-11-22T12:57:29.639Z,3.60
2018-11-22T12:59:56.908Z,3.20
2018-11-22T13:02:24.213Z,3.47
2018-11-22T13:04:51.788Z,3.13
2018-11-22T13:07:19.092Z,3.10
2018-11-22T13:09:46.428Z,3.37
2018-11-22T13:12:13.691Z,3.47
2018-11-22T13:14:41.145Z,3.43
2018-11-22T13:17:08.632Z,3.73
2018-11-22T13:19:35.876Z,3.83
2018-11-22T13:22:03.221Z,4.03
2018-11-22T13:24:30.483Z,4.30
2018-11-22T13:26:57.719Z,4.30
2018-11-22T13:29:24.949Z,4.50
2018-11-22T13:31:52.208Z,4.10
2018-11-22T13:34:19.452Z,3.77
2018-11-22T13:36:46.685Z,4.43
2018-11-22T13:39:13.992Z,4.27
2018-11-22T13:41:41.212Z,4.73
2018-11-22T13:44:08.500Z,4.60
2018-11-22T13:46:35.797Z,4.57
2018-11-22T13:49:03.178Z,4.30
2018-11-22T13:51:30.440Z,5.03
2018-11-22T13:53:57.712Z,4.83
2018-11-22T13:56:24.982Z,4.30
2018-11-22T13:58:52.209Z,5.27
2018-11-22T14:01:19.575Z,4.70
2018-11-22T14:03:46.800Z,4.57
2018-11-22T14:06:14.047Z,4.87
2018-11-22T14:08:41.329Z,4.90
2018-11-22T14:11:13.558Z,4.97
2018-11-22T14:13:35.903Z,5.10
2018-11-22T14:16:03.216Z,6.30
2018-11-22T14:18:30.435Z,5.43
2018-11-22T14:20:57.706Z,5.30
2018-11-22T14:23:25.008Z,5.60
2018-11-22T14:25:52.302Z,5.60
2018-11-22T14:28:19.581Z,5.37
2018-11-22T14:30:46.874Z,5.00
2018-11-22T14:33:14.116Z,5.70
2018-11-22T14:35:41.367Z,5.33
2018-11-22T14:38:08.619Z,5.63
2018-11-22T14:40:35.851Z,5.03
2018-11-22T14:43:03.107Z,5.17
2018-11-22T14:45:30.752Z,5.33
2018-11-22T14:47:59.326Z,5.27
2018-11-22T14:50:34.261Z,5.83
2018-11-22T14:53:11.491Z,5.80
2018-11-22T14:55:38.864Z,5.77
2018-11-22T14:58:06.547Z,6.00
2018-11-22T15:00:33.797Z,5.60
2018-11-22T15:03:01.059Z,6.50
2018-11-22T15:05:28.405Z,5.73
2018-11-22T15:07:55.764Z,6.00
2018-11-22T15:10:23.031Z,6.33
2018-11-22T15:12:50.259Z,5.93
2018-11-22T15:15:19.016Z,6.00
2018-11-22T15:17:46.313Z,5.77
2018-11-22T15:20:14.737Z,6.10
2018-11-22T15:22:42.604Z,6.47
2018-11-22T15:25:11.632Z,6.90
2018-11-22T15:27:39.062Z,6.67
2018-11-22T15:30:08.777Z,6.33
2018-11-22T15:32:36.816Z,6.90
2018-11-22T15:35:05.935Z,6.37
2018-11-22T15:37:33.196Z,6.30
2018-11-22T15:40:00.508Z,5.83
2018-11-22T15:42:27.734Z,6.17
2018-11-22T15:44:55.023Z,6.57
2018-11-22T15:47:22.316Z,6.20
2018-11-22T15:49:49.572Z,6.23
2018-11-22T15:52:16.821Z,6.37
2018-11-22T15:54:44.107Z,6.63
2018-11-22T15:57:11.344Z,6.13
2018-11-22T15:59:38.597Z,6.33
2018-11-22T16:02:05.913Z,6.57
2018-11-22T16:04:33.234Z,5.97
2018-11-22T16:07:00.519Z,7.17
2018-11-22T16:09:27.843Z,7.00
2018-11-22T16:11:55.095Z,7.23
2018-11-22T16:14:22.395Z,6.90
2018-11-22T16:16:49.640Z,7.30
2018-11-22T16:19:16.861Z,7.23
2018-11-22T16:21:44.094Z,6.77
2018-11-22T16:24:11.373Z,7.17
2018-11-22T16:26:38.590Z,7.17
2018-11-22T16:29:05.818Z,7.33
2018-11-22T16:31:33.085Z,7.60
2018-11-22T16:34:00.325Z,7.37
2018-11-22T16:36:27.551Z,7.77
2018-11-22T16:38:54.805Z,7.17
2018-11-22T16:41:22.042Z,7.20
2018-11-22T16:43:49.505Z,7.30
2018-11-22T16:46:16.784Z,6.63
2018-11-22T16:48:44.028Z,6.97
2018-11-22T16:51:11.271Z,6.97
2018-11-22T16:53:38.540Z,7.27
2018-11-22T16:56:05.805Z,7.33
2018-11-22T16:58:33.293Z,6.93
2018-11-22T17:01:00.347Z,7.60
2018-11-22T17:03:27.551Z,7.80
2018-11-22T17:05:54.789Z,7.70
2018-11-22T17:08:22.042Z,8.30
2018-11-22T17:10:49.309Z,8.20
2018-11-22T17:13:16.551Z,7.10
2018-11-22T17:15:43.839Z,7.80
2018-11-22T17:18:11.433Z,8.13
2018-11-22T17:20:38.680Z,7.93
2018-11-22T17:23:06.396Z,7.17
2018-11-22T17:25:34.522Z,7.33
2018-11-22T17:28:03.132Z,7.10
2018-11-22T17:30:32.764Z,6.87
2018-11-22T17:33:00.120Z,7.03
2018-11-22T17:35:27.968Z,7.40
2018-11-22T17:37:56.465Z,7.17
2018-11-22T17:40:25.151Z,6.90
2018-11-22T17:42:53.239Z,6.93
2018-11-22T17:45:27.161Z,6.97
2018-11-22T17:47:54.432Z,7.70
2018-11-22T17:50:23.356Z,7.30
2018-11-22T17:52:50.686Z,7.77
2018-11-22T17:55:19.572Z,8.10
2018-11-22T17:57:46.865Z,7.83
2018-11-22T18:00:19.528Z,9.13
2018-11-22T18:02:48.073Z,7.93
2018-11-22T18:05:15.327Z,7.47
2018-11-22T18:07:42.592Z,8.27
2018-11-22T18:10:12.390Z,9.03
2018-11-22T18:12:40.465Z,8.87
2018-11-22T18:15:09.392Z,7.73
2018-11-22T18:17:37.362Z,7.73
2018-11-22T18:20:11.813Z,8.67
2018-11-22T18:22:39.334Z,8.47
2018-11-22T18:25:08.595Z,9.03
2018-11-22T18:27:35.872Z,8.33
2018-11-22T18:30:04.408Z,8.57
2018-11-22T18:32:31.676Z,9.00
2018-11-22T18:34:58.956Z,8.17
2018-11-22T18:37:26.202Z,8.73
2018-11-22T18:39:53.492Z,8.83
2018-11-22T18:42:20.788Z,9.00
2018-11-22T18:44:48.055Z,8.90
2018-11-22T18:47:16.157Z,9.23
2018-11-22T18:49:43.539Z,9.40
2018-11-22T18:52:10.908Z,9.43
2018-11-22T18:54:39.565Z,9.50
2018-11-22T18:57:06.829Z,10.30
2018-11-22T18:59:34.696Z,9.97
2018-11-22T19:02:02.114Z,9.67
2018-11-22T19:04:29.399Z,9.67
2018-11-22T19:06:56.643Z,10.80
2018-11-22T19:09:24.024Z,10.47
2018-11-22T19:11:51.335Z,11.60
2018-11-22T19:14:18.671Z,12.50
2018-11-22T19:16:45.960Z,12.10
2018-11-22T19:19:13.255Z,11.87
2018-11-22T19:21:41.130Z,12.30
2018-11-22T19:24:07.825Z,10.97
2018-11-22T19:26:35.155Z,11.57
2018-11-22T19:29:03.080Z,11.17
2018-11-22T19:31:30.345Z,9.97
2018-11-22T19:33:57.618Z,10.93
2018-11-22T19:36:24.868Z,11.60
2018-11-22T19:38:52.109Z,11.70
2018-11-22T19:41:19.666Z,12.97
2018-11-22T19:43:46.962Z,11.97
2018-11-22T19:46:14.250Z,12.27
2018-11-22T19:48:41.536Z,12.53
2018-11-22T19:51:08.861Z,13.40
2018-11-22T19:53:36.103Z,13.43
2018-11-22T19:56:03.495Z,13.17
2018-11-22T19:58:30.699Z,12.73
2018-11-22T20:00:57.932Z,12.87
2018-11-22T20:03:25.195Z,13.37
2018-11-22T20:05:52.473Z,12.73
2018-11-22T20:08:19.772Z,13.10
2018-11-22T20:10:47.875Z,13.07
2018-11-22T20:13:15.125Z,13.20
2018-11-22T20:15:42.383Z,12.43
2018-11-22T20:18:10.313Z,12.83
2018-11-22T20:20:37.565Z,12.90
2018-11-22T20:23:04.903Z,13.10
2018-11-22T20:25:32.197Z,13.40
2018-11-22T20:27:59.477Z,12.57
2018-11-22T20:30:28.551Z,13.63
2018-11-22T20:32:55.820Z,13.50
2018-11-22T20:35:23.202Z,13.30
2018-11-22T20:37:50.924Z,13.60
2018-11-22T20:40:19.676Z,13.13
2018-11-22T20:42:46.975Z,12.77
2018-11-22T20:45:16.096Z,13.40
2018-11-22T20:47:44.279Z,14.07
2018-11-22T20:50:13.777Z,13.87
2018-11-22T20:52:41.066Z,14.40
2018-11-22T20:55:10.891Z,14.07
2018-11-22T20:57:38.192Z,13.27
2018-11-22T21:00:08.800Z,13.43
2018-11-22T21:02:36.100Z,13.60
2018-11-22T21:05:03.533Z,13.83
2018-11-22T21:07:30.785Z,12.40
2018-11-22T21:09:58.080Z,12.77
2018-11-22T21:12:25.316Z,14.87
2018-11-22T21:14:52.558Z,13.00
2018-11-22T21:17:19.873Z,13.53
2018-11-22T21:19:47.124Z,13.63
2018-11-22T21:22:14.367Z,12.87
2018-11-22T21:24:41.634Z,12.70
2018-11-22T21:27:08.892Z,13.27
2018-11-22T21:29:36.176Z,14.00
2018-11-22T21:32:03.707Z,14.33
2018-11-22T21:34:30.954Z,13.30
2018-11-22T21:36:58.215Z,13.27
2018-11-22T21:39:25.451Z,13.20
2018-11-22T21:41:52.764Z,13.67
2018-11-22T21:44:19.981Z,14.07
2018-11-22T21:46:47.245Z,14.27
2018-11-22T21:49:14.495Z,13.40
2018-11-22T21:51:41.796Z,14.87
2018-11-22T21:54:09.084Z,13.50
2018-11-22T21:56:36.343Z,14.20
2018-11-22T21:59:03.995Z,13.03
2018-11-22T22:01:31.296Z,14.83
2018-11-22T22:03:58.520Z,14.97
2018-11-22T22:06:25.762Z,14.53
2018-11-22T22:08:53.040Z,13.77
2018-11-22T22:11:20.275Z,13.37
2018-11-22T22:13:47.486Z,14.40
2018-11-22T22:16:14.752Z,14.83
2018-11-22T22:18:41.988Z,13.90
2018-11-22T22:21:09.248Z,14.67
2018-11-22T22:23:36.524Z,14.20
2018-11-22T22:26:03.769Z,14.87
2018-11-22T22:28:30.999Z,13.57
2018-11-22T22:30:58.279Z,14.43
2018-11-22T22:33:25.514Z,13.63
2018-11-22T22:35:52.752Z,14.00
2018-11-22T22:38:20.014Z,13.50
2018-11-22T22:40:47.266Z,14.13
2018-11-22T22:43:14.487Z,14.93
2018-11-22T22:45:41.796Z,15.53
2018-11-22T22:48:09.027Z,14.93
2018-11-22T22:50:36.291Z,15.50
2018-11-22T22:53:03.585Z,15.13
2018-11-22T22:55:31.100Z,14.13
2018-11-22T22:57:58.392Z,14.33
2018-11-22T23:00:32.015Z,15.37
2018-11-22T23:03:04.472Z,14.70
2018-11-22T23:05:32.243Z,14.20
2018-11-22T23:07:59.476Z,15.20
2018-11-22T23:10:26.791Z,14.97
2018-11-22T23:12:54.736Z,14.63
2018-11-22T23:15:22.408Z,15.33
2018-11-22T23:17:49.713Z,15.57
2018-11-22T23:20:18.865Z,15.70
2018-11-22T23:22:46.545Z,15.33
2018-11-22T23:25:14.381Z,14.47
2018-11-22T23:27:41.707Z,14.23
2018-11-22T23:30:11.462Z,15.73
2018-11-22T23:32:38.795Z,15.27
2018-11-22T23:35:06.707Z,15.33
2018-11-22T23:37:33.965Z,15.17
2018-11-22T23:40:01.208Z,15.57
2018-11-22T23:42:28.484Z,14.13
2018-11-22T23:44:55.711Z,15.17
2018-11-22T23:47:23.016Z,15.67
2018-11-22T23:49:50.274Z,15.23
2018-11-22T23:52:17.544Z,15.50
2018-11-22T23:54:44.762Z,16.07
2018-11-22T23:57:12.028Z,14.90
2018-11-22T23:59:39.273Z,15.33
